Time;durP1;ratioP1;P1;durP2;ratioP2;P2;SDS_P1;SDS_P2;PMS_P1;PMS_P2;Temp;Humidity;BMP_temperature;BMP_pressure;BME280_temperature;BME280_humidity;BME280_pressure;Samples;Min_cycle;Max_cycle;Signal;HPM_P1;HPM_P2
2023/03/01 00:00:22;;;;;;;21.98;13.48;;;;;;;;;;4986541;28;20039;-77
2023/03/01 00:02:48;;;;;;;20.52;12.77;;;;;;;;;;4990506;28;20542;-77
2023/03/01 00:05:14;;;;;;;29.92;16.27;;;;;;;;;;4989906;28;20031;-77
2023/03/01 00:07:40;;;;;;;26.77;16.55;;;;;;;;;;4990495;28;20157;-77
2023/03/01 00:10:07;;;;;;;29.17;17.13;;;;;;;;;;4987013;28;20032;-79
2023/03/01 00:12:33;;;;;;;33.33;17.65;;;;;;;;;;4991149;28;20026;-80
2023/03/01 00:14:59;;;;;;;29.10;15.45;;;;;;;;;;4971550;28;20035;-77
2023/03/01 00:17:25;;;;;;;27.27;16.55;;;;;;;;;;4990124;28;20031;-76
2023/03/01 00:19:51;;;;;;;23.13;14.77;;;;;;;;;;4988208;28;20038;-76
2023/03/01 00:22:17;;;;;;;35.35;18.58;;;;;;;;;;4988007;28;20030;-76
2023/03/01 00:24:43;;;;;;;29.45;16.88;;;;;;;;;;4987013;28;20049;-79
2023/03/01 00:27:09;;;;;;;31.10;18.13;;;;;;;;;;4971041;28;20046;-78
2023/03/01 00:29:35;;;;;;;39.03;20.25;;;;;;;;;;4986477;28;20042;-76
2023/03/01 00:32:01;;;;;;;35.05;18.10;;;;;;;;;;4986912;28;20053;-77
2023/03/01 00:34:27;;;;;;;46.00;20.98;;;;;;;;;;4988987;28;20077;-76
2023/03/01 00:36:53;;;;;;;36.00;18.92;;;;;;;;;;4986986;28;20035;-78
2023/03/01 00:39:19;;;;;;;44.15;20.92;;;;;;;;;;4987343;28;20039;-76
2023/03/01 00:41:45;;;;;;;41.25;19.98;;;;;;;;;;4967994;28;20449;-80
2023/03/01 00:44:11;;;;;;;39.13;20.77;;;;;;;;;;4972861;28;20045;-77
2023/03/01 00:46:37;;;;;;;29.95;17.42;;;;;;;;;;4987321;28;20046;-77
2023/03/01 00:49:04;;;;;;;25.13;13.68;;;;;;;;;;4985948;28;20071;-76
2023/03/01 00:51:31;;;;;;;18.77;12.55;;;;;;;;;;4986176;28;20041;-76
2023/03/01 00:53:58;;;;;;;21.85;12.77;;;;;;;;;;4988841;28;20029;-76
2023/03/01 00:56:24;;;;;;;19.67;12.88;;;;;;;;;;4989370;28;20026;-77
2023/03/01 00:58:50;;;;;;;22.25;12.88;;;;;;;;;;4983373;28;20033;-76
2023/03/01 01:01:18;;;;;;;19.75;12.93;;;;;;;;;;4985684;28;20042;-77
2023/03/01 01:03:45;;;;;;;18.83;12.95;;;;;;;;;;4989194;28;20030;-77
2023/03/01 01:06:15;;;;;;;20.98;13.55;;;;;;;;;;4989314;28;20045;-77
2023/03/01 01:08:41;;;;;;;20.65;13.07;;;;;;;;;;4970453;28;20034;-77
2023/03/01 01:11:09;;;;;;;20.95;12.82;;;;;;;;;;4988025;28;20030;-76
2023/03/01 01:13:35;;;;;;;22.08;13.23;;;;;;;;;;4987415;28;20073;-76
2023/03/01 01:16:01;;;;;;;25.73;15.23;;;;;;;;;;4988388;28;20030;-76
2023/03/01 01:18:28;;;;;;;22.80;14.38;;;;;;;;;;4984748;28;20037;-77
2023/03/01 01:20:55;;;;;;;21.75;13.52;;;;;;;;;;4989658;28;20046;-76
2023/03/01 01:23:21;;;;;;;21.42;14.55;;;;;;;;;;4988231;28;20044;-75
2023/03/01 01:25:47;;;;;;;28.50;15.90;;;;;;;;;;4971842;28;20030;-76
2023/03/01 01:28:13;;;;;;;25.23;14.90;;;;;;;;;;4982958;28;20045;-76
2023/03/01 01:30:39;;;;;;;30.98;17.05;;;;;;;;;;4986592;28;20050;-78
2023/03/01 01:33:05;;;;;;;28.48;16.48;;;;;;;;;;4987320;28;20057;-76
2023/03/01 01:35:31;;;;;;;26.90;16.35;;;;;;;;;;4987925;28;20030;-76
2023/03/01 01:37:57;;;;;;;25.13;16.30;;;;;;;;;;4982342;28;20026;-76
2023/03/01 01:40:23;;;;;;;47.00;15.95;;;;;;;;;;5001466;28;20399;-76
2023/03/01 01:42:49;;;;;;;50.65;17.77;;;;;;;;;;4971354;28;20046;-76
2023/03/01 01:45:27;;;;;;;110.45;19.63;;;;;;;;;;4987534;28;20522;-75
2023/03/01 01:47:54;;;;;;;39.42;16.70;;;;;;;;;;4970361;28;20050;-78
2023/03/01 01:50:21;;;;;;;32.30;18.88;;;;;;;;;;4982892;28;20085;-75
2023/03/01 01:52:49;;;;;;;38.08;19.27;;;;;;;;;;4966603;28;20031;-75
2023/03/01 01:55:16;;;;;;;30.45;18.10;;;;;;;;;;4989005;28;20031;-75
2023/03/01 01:57:45;;;;;;;28.67;18.05;;;;;;;;;;4984311;28;20125;-76
2023/03/01 02:00:14;;;;;;;32.30;17.92;;;;;;;;;;4968261;28;20177;-77
2023/03/01 02:02:42;;;;;;;28.25;17.73;;;;;;;;;;4989864;28;20418;-76
2023/03/01 02:05:26;;;;;;;29.48;17.35;;;;;;;;;;4987565;28;20034;-77
2023/03/01 02:07:53;;;;;;;42.47;18.17;;;;;;;;;;4986104;28;20391;-78
2023/03/01 02:10:20;;;;;;;52.45;20.27;;;;;;;;;;4986017;28;20034;-76
2023/03/01 02:12:46;;;;;;;78.07;21.23;;;;;;;;;;4987591;28;20454;-76
2023/03/01 02:15:12;;;;;;;159.00;22.90;;;;;;;;;;4984128;28;20121;-77
2023/03/01 02:17:38;;;;;;;82.80;19.85;;;;;;;;;;4986920;28;20038;-76
2023/03/01 02:20:06;;;;;;;72.60;22.02;;;;;;;;;;4986742;28;20114;-76
2023/03/01 02:22:33;;;;;;;255.65;27.65;;;;;;;;;;4969262;28;20113;-76
2023/03/01 02:25:05;;;;;;;289.90;25.70;;;;;;;;;;4983456;28;20029;-76
2023/03/01 02:27:50;;;;;;;276.58;30.08;;;;;;;;;;4984618;28;20036;-75
2023/03/01 02:30:16;;;;;;;281.10;30.55;;;;;;;;;;4983321;28;20057;-75
2023/03/01 02:32:42;;;;;;;172.70;27.27;;;;;;;;;;4989199;28;20040;-76
2023/03/01 02:35:11;;;;;;;214.25;26.77;;;;;;;;;;4986892;28;20096;-76
2023/03/01 02:37:37;;;;;;;273.08;33.70;;;;;;;;;;4969154;28;20034;-76
2023/03/01 02:40:06;;;;;;;499.08;33.78;;;;;;;;;;4983466;28;20026;-76
2023/03/01 02:42:34;;;;;;;297.60;25.63;;;;;;;;;;4988524;28;20026;-76
2023/03/01 02:45:00;;;;;;;319.80;27.75;;;;;;;;;;4984775;28;20133;-76
2023/03/01 02:47:26;;;;;;;232.13;27.27;;;;;;;;;;4984355;28;20116;-76
2023/03/01 02:49:52;;;;;;;250.50;26.95;;;;;;;;;;4986083;28;20027;-77
2023/03/01 02:52:18;;;;;;;324.27;25.60;;;;;;;;;;4985644;28;20035;-79
2023/03/01 02:54:49;;;;;;;300.67;25.38;;;;;;;;;;4985912;28;20383;-76
2023/03/01 02:57:16;;;;;;;284.27;25.13;;;;;;;;;;4983046;28;20080;-76
2023/03/01 02:59:43;;;;;;;220.80;24.25;;;;;;;;;;4988400;28;20042;-79
2023/03/01 03:02:20;;;;;;;190.32;22.92;;;;;;;;;;4982328;28;20056;-76
2023/03/01 03:04:46;;;;;;;162.80;21.52;;;;;;;;;;4986665;28;20038;-81
2023/03/01 03:07:12;;;;;;;237.45;25.95;;;;;;;;;;4984254;28;20039;-77
2023/03/01 03:09:38;;;;;;;171.75;22.52;;;;;;;;;;4987478;28;20438;-77
2023/03/01 03:12:04;;;;;;;245.60;23.95;;;;;;;;;;4985219;28;20558;-76
2023/03/01 03:14:34;;;;;;;151.05;23.13;;;;;;;;;;4987241;28;20068;-76
2023/03/01 03:17:00;;;;;;;216.55;25.42;;;;;;;;;;4984687;28;20462;-75
2023/03/01 03:19:26;;;;;;;220.07;26.25;;;;;;;;;;4986824;28;20041;-75
2023/03/01 03:21:52;;;;;;;165.05;23.35;;;;;;;;;;4986595;28;20042;-78
2023/03/01 03:24:18;;;;;;;184.68;22.08;;;;;;;;;;4950924;28;20157;-75
2023/03/01 03:26:45;;;;;;;208.30;24.65;;;;;;;;;;4985411;28;20031;-75
2023/03/01 03:29:11;;;;;;;375.35;28.30;;;;;;;;;;4984987;28;20142;-75
2023/03/01 03:31:37;;;;;;;152.88;20.63;;;;;;;;;;4982615;28;20447;-75
2023/03/01 03:34:03;;;;;;;102.70;22.17;;;;;;;;;;4987102;28;20156;-76
2023/03/01 03:36:29;;;;;;;45.90;19.73;;;;;;;;;;4969279;28;20045;-74
2023/03/01 03:38:55;;;;;;;29.08;18.00;;;;;;;;;;4983835;28;20553;-81
2023/03/01 03:41:21;;;;;;;28.98;17.02;;;;;;;;;;4983090;28;20070;-77
2023/03/01 03:43:48;;;;;;;32.15;18.60;;;;;;;;;;4986161;28;20049;-78
2023/03/01 03:46:14;;;;;;;35.65;19.63;;;;;;;;;;4983567;28;20034;-79
2023/03/01 03:48:42;;;;;;;28.25;17.88;;;;;;;;;;4979884;28;20479;-77
2023/03/01 03:51:10;;;;;;;30.30;17.25;;;;;;;;;;4981054;28;20120;-76
2023/03/01 03:53:36;;;;;;;26.55;16.98;;;;;;;;;;4982899;28;20546;-74
2023/03/01 03:56:02;;;;;;;26.23;16.92;;;;;;;;;;4982187;28;20391;-76
2023/03/01 03:58:28;;;;;;;26.17;15.88;;;;;;;;;;4982999;28;20089;-75
2023/03/01 04:00:56;;;;;;;30.38;18.45;;;;;;;;;;4985370;28;20045;-77
2023/03/01 04:03:23;;;;;;;30.23;17.95;;;;;;;;;;4987233;28;20109;-75
2023/03/01 04:05:50;;;;;;;33.80;15.82;;;;;;;;;;4984068;28;20406;-75
2023/03/01 04:08:19;;;;;;;63.38;31.35;;;;;;;;;;4963262;28;20122;-76
2023/03/01 04:10:47;;;;;;;40.78;18.25;;;;;;;;;;4968323;28;20084;-77
2023/03/01 04:13:15;;;;;;;107.13;23.67;;;;;;;;;;4982192;28;21230;-80
2023/03/01 04:15:42;;;;;;;103.30;15.18;;;;;;;;;;4982730;28;20026;-76
2023/03/01 04:18:09;;;;;;;243.93;18.30;;;;;;;;;;4982537;28;20124;-75
2023/03/01 04:20:36;;;;;;;202.82;16.80;;;;;;;;;;4981484;28;20046;-77
2023/03/01 04:23:13;;;;;;;145.55;13.98;;;;;;;;;;4974503;28;20030;-76
2023/03/01 04:25:53;;;;;;;64.68;13.07;;;;;;;;;;4986299;28;20030;-77
2023/03/01 04:28:26;;;;;;;21.50;11.80;;;;;;;;;;4985613;28;20382;-76
2023/03/01 04:30:53;;;;;;;18.23;11.57;;;;;;;;;;4986564;28;20164;-77
2023/03/01 04:33:19;;;;;;;17.63;11.68;;;;;;;;;;4976610;28;20037;-76
2023/03/01 04:35:45;;;;;;;17.45;10.95;;;;;;;;;;4986409;28;20022;-77
2023/03/01 04:38:11;;;;;;;15.60;10.35;;;;;;;;;;4988925;28;20693;-77
2023/03/01 04:40:37;;;;;;;19.50;12.55;;;;;;;;;;4987602;28;20125;-76
2023/03/01 04:43:04;;;;;;;17.48;11.80;;;;;;;;;;4986631;28;20026;-76
2023/03/01 04:45:31;;;;;;;15.93;10.55;;;;;;;;;;4988251;28;20018;-76
2023/03/01 04:47:58;;;;;;;16.77;10.70;;;;;;;;;;4971427;28;20475;-78
2023/03/01 04:50:25;;;;;;;20.70;9.65;;;;;;;;;;4985501;28;20081;-76
2023/03/01 04:52:51;;;;;;;13.70;9.02;;;;;;;;;;4987021;28;20026;-76
2023/03/01 04:55:17;;;;;;;12.30;8.50;;;;;;;;;;4989188;28;20034;-76
2023/03/01 04:57:43;;;;;;;13.90;8.80;;;;;;;;;;4973272;28;20026;-77
2023/03/01 05:00:20;;;;;;;31.80;17.42;;;;;;;;;;4986671;28;20022;-79
2023/03/01 05:02:52;;;;;;;46.70;26.83;;;;;;;;;;4986050;28;20034;-78
2023/03/01 05:05:19;;;;;;;17.67;11.35;;;;;;;;;;4987699;28;20026;-76
2023/03/01 05:07:45;;;;;;;11.73;9.13;;;;;;;;;;4985902;28;20045;-77
2023/03/01 05:10:11;;;;;;;12.43;8.10;;;;;;;;;;4990229;28;20030;-79
2023/03/01 05:12:37;;;;;;;8.20;6.72;;;;;;;;;;4987324;28;20027;-77
2023/03/01 05:15:06;;;;;;;10.40;7.00;;;;;;;;;;4972661;28;20466;-79
2023/03/01 05:17:33;;;;;;;8.18;6.30;;;;;;;;;;4985721;28;20077;-80
2023/03/01 05:19:59;;;;;;;8.73;6.70;;;;;;;;;;4987290;28;20038;-79
2023/03/01 05:22:25;;;;;;;10.10;7.00;;;;;;;;;;4980895;28;20134;-79
2023/03/01 05:24:53;;;;;;;9.63;6.97;;;;;;;;;;4983380;28;20469;-79
2023/03/01 05:27:21;;;;;;;9.55;7.43;;;;;;;;;;4988341;28;20030;-79
2023/03/01 05:29:48;;;;;;;12.93;7.47;;;;;;;;;;4987409;28;20127;-80
2023/03/01 05:32:15;;;;;;;9.30;7.00;;;;;;;;;;5002393;28;20471;-79
2023/03/01 05:34:41;;;;;;;10.45;7.85;;;;;;;;;;4988750;28;20146;-79
2023/03/01 05:37:08;;;;;;;13.00;8.77;;;;;;;;;;4986969;28;20034;-76
2023/03/01 05:39:35;;;;;;;12.48;8.70;;;;;;;;;;4981602;28;20034;-79
2023/03/01 05:42:01;;;;;;;11.98;8.60;;;;;;;;;;5002350;28;20050;-78
2023/03/01 05:44:28;;;;;;;13.93;9.48;;;;;;;;;;4987753;28;20026;-76
2023/03/01 05:46:54;;;;;;;13.90;9.38;;;;;;;;;;4984910;28;20035;-79
2023/03/01 05:49:23;;;;;;;12.23;9.32;;;;;;;;;;4985790;28;20551;-76
2023/03/01 05:51:50;;;;;;;11.80;8.50;;;;;;;;;;4989861;28;20024;-80
2023/03/01 05:54:17;;;;;;;12.98;8.00;;;;;;;;;;4987221;28;20034;-77
2023/03/01 05:56:43;;;;;;;11.30;8.40;;;;;;;;;;4981587;28;20345;-78
2023/03/01 05:59:09;;;;;;;12.77;8.00;;;;;;;;;;4985234;28;20034;-77
2023/03/01 06:01:36;;;;;;;11.52;7.97;;;;;;;;;;4982677;28;20464;-77
2023/03/01 06:04:02;;;;;;;10.05;7.85;;;;;;;;;;4985286;28;20575;-77
2023/03/01 06:06:28;;;;;;;10.75;7.38;;;;;;;;;;4985193;28;20034;-77
2023/03/01 06:08:54;;;;;;;11.45;8.38;;;;;;;;;;4989864;28;20038;-80
2023/03/01 06:11:21;;;;;;;10.88;7.70;;;;;;;;;;4987409;28;20038;-81
2023/03/01 06:13:47;;;;;;;9.95;7.07;;;;;;;;;;4950028;28;20506;-79
2023/03/01 06:16:14;;;;;;;10.30;7.60;;;;;;;;;;4984365;28;20045;-77
2023/03/01 06:18:40;;;;;;;10.95;8.07;;;;;;;;;;4984900;28;20033;-78
2023/03/01 06:21:07;;;;;;;10.02;7.63;;;;;;;;;;4966179;28;20042;-78
2023/03/01 06:23:36;;;;;;;11.77;7.22;;;;;;;;;;4983351;28;20042;-77
2023/03/01 06:26:05;;;;;;;10.60;7.38;;;;;;;;;;4988772;28;20162;-77
2023/03/01 06:28:33;;;;;;;9.60;7.00;;;;;;;;;;4986955;28;20056;-77
2023/03/01 06:30:59;;;;;;;10.40;7.97;;;;;;;;;;4986681;28;20117;-81
2023/03/01 06:33:25;;;;;;;8.88;6.93;;;;;;;;;;4987178;28;20101;-76
2023/03/01 06:35:52;;;;;;;9.43;7.03;;;;;;;;;;4967121;28;20487;-79
2023/03/01 06:38:18;;;;;;;8.43;7.05;;;;;;;;;;4968575;28;20035;-81
2023/03/01 06:40:45;;;;;;;9.32;6.88;;;;;;;;;;4982719;28;21381;-78
2023/03/01 06:43:12;;;;;;;9.70;7.32;;;;;;;;;;4988094;28;20081;-77
2023/03/01 06:45:38;;;;;;;11.00;7.65;;;;;;;;;;4983814;28;20044;-78
2023/03/01 06:48:05;;;;;;;8.65;6.65;;;;;;;;;;4988338;28;20113;-77
2023/03/01 06:50:32;;;;;;;10.80;7.35;;;;;;;;;;4985205;28;20042;-77
2023/03/01 06:52:59;;;;;;;8.95;7.28;;;;;;;;;;4984650;28;20034;-78
2023/03/01 06:55:25;;;;;;;9.23;7.47;;;;;;;;;;4987711;28;20475;-77
2023/03/01 06:57:58;;;;;;;10.43;7.47;;;;;;;;;;4985568;28;20030;-77
2023/03/01 07:00:25;;;;;;;9.70;7.35;;;;;;;;;;4986647;28;20102;-78
2023/03/01 07:02:51;;;;;;;10.73;8.07;;;;;;;;;;4979379;28;20123;-81
2023/03/01 07:05:17;;;;;;;9.90;7.88;;;;;;;;;;4985496;28;20030;-78
2023/03/01 07:07:43;;;;;;;9.52;7.60;;;;;;;;;;4962731;28;20310;-79
2023/03/01 07:10:10;;;;;;;9.50;7.43;;;;;;;;;;4970695;28;20045;-80
2023/03/01 07:12:36;;;;;;;8.57;6.75;;;;;;;;;;4968301;28;20046;-77
2023/03/01 07:15:02;;;;;;;10.18;7.75;;;;;;;;;;4982959;28;20399;-77
2023/03/01 07:17:28;;;;;;;10.38;7.22;;;;;;;;;;4983927;28;20392;-77
2023/03/01 07:19:54;;;;;;;9.73;7.30;;;;;;;;;;4985198;28;20042;-77
2023/03/01 07:22:20;;;;;;;9.00;7.32;;;;;;;;;;4987115;28;20038;-76
2023/03/01 07:24:46;;;;;;;9.35;7.22;;;;;;;;;;4969763;28;20034;-76
2023/03/01 07:27:12;;;;;;;9.18;7.47;;;;;;;;;;4985031;28;20030;-76
2023/03/01 07:29:38;;;;;;;10.45;7.50;;;;;;;;;;4978617;28;20054;-77
2023/03/01 07:32:05;;;;;;;10.65;7.03;;;;;;;;;;4978775;28;20042;-77
2023/03/01 07:34:31;;;;;;;12.32;7.10;;;;;;;;;;4983403;28;20031;-77
2023/03/01 07:36:57;;;;;;;9.02;6.30;;;;;;;;;;4966679;28;20105;-77
2023/03/01 07:39:23;;;;;;;9.07;6.95;;;;;;;;;;4983344;28;20022;-76
2023/03/01 07:41:49;;;;;;;11.20;7.57;;;;;;;;;;4984877;28;20038;-77
2023/03/01 07:44:17;;;;;;;10.13;7.55;;;;;;;;;;4985355;28;20149;-79
2023/03/01 07:46:43;;;;;;;10.52;7.88;;;;;;;;;;4984853;28;20113;-76
2023/03/01 07:49:09;;;;;;;13.38;8.88;;;;;;;;;;4981600;28;20037;-76
2023/03/01 07:51:35;;;;;;;18.30;9.00;;;;;;;;;;4986058;28;20038;-77
2023/03/01 07:54:01;;;;;;;12.15;8.85;;;;;;;;;;4982331;28;20128;-79
2023/03/01 07:56:27;;;;;;;13.68;9.95;;;;;;;;;;4986174;28;20031;-78
2023/03/01 07:58:53;;;;;;;12.15;9.65;;;;;;;;;;4985028;28;20105;-77
2023/03/01 08:01:20;;;;;;;11.93;8.77;;;;;;;;;;5000943;28;20093;-78
2023/03/01 08:03:46;;;;;;;11.48;9.23;;;;;;;;;;4986266;28;20509;-77
2023/03/01 08:06:14;;;;;;;15.15;8.55;;;;;;;;;;4985605;28;20065;-78
2023/03/01 08:08:40;;;;;;;10.95;8.43;;;;;;;;;;4986688;28;20110;-78
2023/03/01 08:11:07;;;;;;;12.23;9.50;;;;;;;;;;4952334;28;20049;-78
2023/03/01 08:13:33;;;;;;;13.48;9.55;;;;;;;;;;4989982;28;20038;-78
2023/03/01 08:16:03;;;;;;;12.10;8.82;;;;;;;;;;4987258;28;20632;-79
2023/03/01 08:18:29;;;;;;;10.90;9.13;;;;;;;;;;4986521;28;20209;-77
2023/03/01 08:20:55;;;;;;;19.90;10.50;;;;;;;;;;4990270;28;20506;-77
2023/03/01 08:23:21;;;;;;;14.13;10.00;;;;;;;;;;4991174;28;20491;-76
2023/03/01 08:25:47;;;;;;;16.40;11.77;;;;;;;;;;4988534;28;20034;-77
2023/03/01 08:28:14;;;;;;;17.20;11.60;;;;;;;;;;4984768;28;20045;-74
2023/03/01 08:30:40;;;;;;;20.48;13.90;;;;;;;;;;4970365;28;20611;-76
2023/03/01 08:33:06;;;;;;;18.27;12.73;;;;;;;;;;4980762;28;20044;-81
2023/03/01 08:35:32;;;;;;;20.02;12.68;;;;;;;;;;4980605;28;20038;-78
2023/03/01 08:37:59;;;;;;;23.00;14.95;;;;;;;;;;4983653;28;20031;-77
2023/03/01 08:40:25;;;;;;;18.95;13.68;;;;;;;;;;4981446;28;20038;-77
2023/03/01 08:42:51;;;;;;;18.63;12.25;;;;;;;;;;4981705;28;20114;-78
2023/03/01 08:45:18;;;;;;;22.88;14.15;;;;;;;;;;4992637;28;20073;-81
2023/03/01 08:47:45;;;;;;;19.77;13.18;;;;;;;;;;4991711;28;20452;-79
2023/03/01 08:50:11;;;;;;;16.42;12.70;;;;;;;;;;4994095;28;20030;-78
2023/03/01 08:52:37;;;;;;;22.77;14.95;;;;;;;;;;4977344;28;20562;-76
2023/03/01 08:55:03;;;;;;;21.10;15.10;;;;;;;;;;4986144;28;20061;-78
2023/03/01 08:57:30;;;;;;;28.63;16.75;;;;;;;;;;4986418;28;20113;-77
2023/03/01 08:59:56;;;;;;;26.30;17.73;;;;;;;;;;4985776;28;20160;-77
2023/03/01 09:02:22;;;;;;;25.60;16.48;;;;;;;;;;4983270;28;20045;-77
2023/03/01 09:04:49;;;;;;;26.90;16.55;;;;;;;;;;4984029;28;20066;-77
2023/03/01 09:07:15;;;;;;;92.28;56.72;;;;;;;;;;4977769;28;20415;-83
2023/03/01 09:09:41;;;;;;;35.83;21.55;;;;;;;;;;4971023;28;20046;-83
2023/03/01 09:12:07;;;;;;;27.85;19.85;;;;;;;;;;4984355;28;20038;-85
2023/03/01 09:14:33;;;;;;;29.42;16.95;;;;;;;;;;4969247;28;20045;-79
2023/03/01 09:17:02;;;;;;;24.65;18.25;;;;;;;;;;4986072;28;20069;-82
2023/03/01 09:19:28;;;;;;;21.88;17.20;;;;;;;;;;4982796;28;20042;-81
2023/03/01 09:21:55;;;;;;;24.35;17.40;;;;;;;;;;4981625;28;20066;-76
2023/03/01 09:24:22;;;;;;;20.88;16.58;;;;;;;;;;4984691;28;20050;-76
2023/03/01 09:26:48;;;;;;;21.40;16.48;;;;;;;;;;4986559;28;20514;-78
2023/03/01 09:29:15;;;;;;;23.33;16.17;;;;;;;;;;4982778;28;20512;-77
2023/03/01 09:31:41;;;;;;;20.58;15.77;;;;;;;;;;4983470;28;20042;-77
2023/03/01 09:34:08;;;;;;;20.95;16.45;;;;;;;;;;4984264;28;20054;-77
2023/03/01 09:36:34;;;;;;;19.77;15.85;;;;;;;;;;4984500;28;20023;-76
2023/03/01 09:39:00;;;;;;;19.95;14.45;;;;;;;;;;4967883;28;20022;-77
2023/03/01 09:41:45;;;;;;;20.45;13.52;;;;;;;;;;4979605;28;20046;-79
2023/03/01 09:44:20;;;;;;;18.55;12.55;;;;;;;;;;4979691;28;20030;-76
2023/03/01 09:46:46;;;;;;;16.67;12.48;;;;;;;;;;4973503;28;20030;-82
2023/03/01 09:49:16;;;;;;;14.10;11.10;;;;;;;;;;4982425;28;20030;-81
2023/03/01 09:51:43;;;;;;;25.70;18.05;;;;;;;;;;4990979;28;20476;-82
2023/03/01 09:54:10;;;;;;;20.65;14.32;;;;;;;;;;4991869;28;20032;-83
2023/03/01 09:56:48;;;;;;;15.63;10.52;;;;;;;;;;4991967;28;20394;-79
2023/03/01 09:59:14;;;;;;;12.07;9.50;;;;;;;;;;4988748;28;20038;-81
2023/03/01 10:01:59;;;;;;;12.88;9.27;;;;;;;;;;4982182;28;20050;-82
2023/03/01 10:04:27;;;;;;;11.93;9.35;;;;;;;;;;4984930;28;20030;-82
2023/03/01 10:07:20;;;;;;;11.75;8.63;;;;;;;;;;4977430;28;20037;-83
2023/03/01 10:09:47;;;;;;;9.52;7.85;;;;;;;;;;4979047;28;20058;-81
2023/03/01 10:12:19;;;;;;;11.32;8.32;;;;;;;;;;4981221;28;20558;-82
2023/03/01 10:14:58;;;;;;;10.57;8.60;;;;;;;;;;4993480;28;20030;-80
2023/03/01 10:17:45;;;;;;;11.45;8.68;;;;;;;;;;4975975;28;20088;-80
2023/03/01 10:20:16;;;;;;;11.18;8.93;;;;;;;;;;4980677;28;20095;-79
2023/03/01 10:22:42;;;;;;;10.40;8.52;;;;;;;;;;4984178;28;20046;-78
2023/03/01 10:25:13;;;;;;;14.77;8.82;;;;;;;;;;4984694;28;20034;-80
2023/03/01 10:27:46;;;;;;;10.77;7.72;;;;;;;;;;4979871;28;20415;-79
2023/03/01 10:30:30;;;;;;;10.32;7.80;;;;;;;;;;4978287;28;20046;-80
2023/03/01 10:32:57;;;;;;;9.80;7.50;;;;;;;;;;4982021;28;20026;-79
2023/03/01 10:35:24;;;;;;;11.05;7.82;;;;;;;;;;4983225;28;20081;-78
2023/03/01 10:37:59;;;;;;;9.50;7.90;;;;;;;;;;4983477;28;20197;-80
2023/03/01 10:40:25;;;;;;;14.52;9.00;;;;;;;;;;4982665;28;20388;-79
2023/03/01 10:42:51;;;;;;;13.75;9.02;;;;;;;;;;4982490;28;20062;-79
2023/03/01 10:45:30;;;;;;;13.32;8.77;;;;;;;;;;4975317;28;20039;-80
2023/03/01 10:48:05;;;;;;;41.97;25.55;;;;;;;;;;4983321;28;20122;-82
2023/03/01 10:50:31;;;;;;;11.88;8.57;;;;;;;;;;4985602;28;20038;-81
2023/03/01 10:53:05;;;;;;;9.48;8.25;;;;;;;;;;4979995;28;20030;-82
2023/03/01 10:55:34;;;;;;;8.30;6.82;;;;;;;;;;4982677;28;20533;-80
2023/03/01 10:58:09;;;;;;;8.15;6.47;;;;;;;;;;4984662;28;20101;-78
2023/03/01 11:00:45;;;;;;;9.48;6.85;;;;;;;;;;4981925;28;20030;-79
2023/03/01 11:03:13;;;;;;;8.38;7.07;;;;;;;;;;4985252;28;20093;-80
2023/03/01 11:05:51;;;;;;;10.20;7.50;;;;;;;;;;4969790;28;20121;-79
2023/03/01 11:08:29;;;;;;;9.88;7.18;;;;;;;;;;4986320;28;20085;-80
2023/03/01 11:11:04;;;;;;;8.68;7.15;;;;;;;;;;4981087;28;20038;-79
2023/03/01 11:13:30;;;;;;;10.90;7.78;;;;;;;;;;4980815;28;20126;-82
2023/03/01 11:16:01;;;;;;;9.38;7.28;;;;;;;;;;4983140;28;20499;-80
2023/03/01 11:18:27;;;;;;;12.75;8.23;;;;;;;;;;4983083;28;20043;-80
2023/03/01 11:20:55;;;;;;;10.48;7.80;;;;;;;;;;4982808;28;20066;-81
2023/03/01 11:23:22;;;;;;;9.82;8.27;;;;;;;;;;4980668;28;20022;-81
2023/03/01 11:25:55;;;;;;;11.27;8.75;;;;;;;;;;4989669;28;20026;-80
2023/03/01 11:28:22;;;;;;;10.77;8.32;;;;;;;;;;4989907;28;20029;-81
2023/03/01 11:30:51;;;;;;;13.25;8.45;;;;;;;;;;4984178;28;20034;-80
2023/03/01 11:33:20;;;;;;;12.68;8.82;;;;;;;;;;4982516;28;20089;-78
2023/03/01 11:35:56;;;;;;;9.48;8.48;;;;;;;;;;4979904;28;20105;-75
2023/03/01 11:38:22;;;;;;;13.77;7.47;;;;;;;;;;4981318;28;20368;-78
2023/03/01 11:41:05;;;;;;;9.73;8.13;;;;;;;;;;4985279;28;20038;-77
2023/03/01 11:43:34;;;;;;;11.23;8.65;;;;;;;;;;4964567;28;20095;-77
2023/03/01 11:46:19;;;;;;;9.93;8.13;;;;;;;;;;4980912;28;20047;-77
2023/03/01 11:48:50;;;;;;;17.15;10.88;;;;;;;;;;4980813;28;20088;-81
2023/03/01 11:51:25;;;;;;;15.55;9.73;;;;;;;;;;4965732;28;20487;-82
2023/03/01 11:53:58;;;;;;;12.20;8.30;;;;;;;;;;4981376;28;20478;-77
2023/03/01 11:56:24;;;;;;;;;;;;;;;;;;4982065;28;20031;-78
2023/03/01 11:58:57;;;;;;;14.38;8.25;;;;;;;;;;4978516;28;20008;-77
2023/03/01 12:01:23;;;;;;;11.27;8.27;;;;;;;;;;4982559;28;20047;-77
2023/03/01 12:04:08;;;;;;;15.50;8.73;;;;;;;;;;4978766;28;20037;-79
2023/03/01 12:06:34;;;;;;;12.55;8.57;;;;;;;;;;4981211;28;20042;-76
2023/03/01 12:09:10;;;;;;;14.45;8.52;;;;;;;;;;4975251;28;20549;-77
2023/03/01 12:11:47;;;;;;;11.32;8.57;;;;;;;;;;4978150;28;20042;-78
2023/03/01 12:14:16;;;;;;;11.35;8.73;;;;;;;;;;4980454;28;20045;-77
2023/03/01 12:16:48;;;;;;;13.38;9.00;;;;;;;;;;4982818;28;20126;-77
2023/03/01 12:19:32;;;;;;;16.38;9.35;;;;;;;;;;4981761;28;20105;-81
2023/03/01 12:22:21;;;;;;;12.20;9.55;;;;;;;;;;4979814;28;21269;-80
2023/03/01 12:25:01;;;;;;;19.35;13.10;;;;;;;;;;4984865;28;20034;-79
2023/03/01 12:27:47;;;;;;;25.90;16.90;;;;;;;;;;4983026;28;20030;-76
2023/03/01 12:30:19;;;;;;;12.45;9.35;;;;;;;;;;4940671;28;20055;-78
2023/03/01 12:32:55;;;;;;;12.60;9.02;;;;;;;;;;4978718;28;20039;-78
2023/03/01 12:35:24;;;;;;;12.80;9.75;;;;;;;;;;4981541;28;20037;-78
2023/03/01 12:37:50;;;;;;;14.20;10.13;;;;;;;;;;4984130;28;20379;-78
2023/03/01 12:40:23;;;;;;;11.68;9.15;;;;;;;;;;4982823;28;20038;-78
2023/03/01 12:43:12;;;;;;;12.15;9.32;;;;;;;;;;4977480;28;20049;-76
2023/03/01 12:45:57;;;;;;;12.73;9.32;;;;;;;;;;4964844;28;20042;-76
2023/03/01 12:48:23;;;;;;;37.05;24.55;;;;;;;;;;4981425;28;20439;-77
2023/03/01 12:50:53;;;;;;;15.88;11.63;;;;;;;;;;4982794;28;20034;-77
2023/03/01 12:53:35;;;;;;;13.25;9.23;;;;;;;;;;4981131;28;20066;-78
2023/03/01 12:56:12;;;;;;;13.02;8.13;;;;;;;;;;4977669;28;20163;-77
2023/03/01 12:58:58;;;;;;;11.88;9.02;;;;;;;;;;4982901;28;20932;-77
2023/03/01 13:01:43;;;;;;;14.98;9.85;;;;;;;;;;4985453;28;20058;-77
2023/03/01 13:04:23;;;;;;;13.43;8.93;;;;;;;;;;4982309;28;20054;-78
2023/03/01 13:07:08;;;;;;;18.17;11.07;;;;;;;;;;4987701;28;20042;-77
2023/03/01 13:09:34;;;;;;;12.88;8.75;;;;;;;;;;4986397;28;20027;-77
2023/03/01 13:12:00;;;;;;;13.48;9.52;;;;;;;;;;4985802;28;20031;-76
2023/03/01 13:14:26;;;;;;;14.30;10.18;;;;;;;;;;4969220;28;20475;-78
2023/03/01 13:16:53;;;;;;;12.52;9.63;;;;;;;;;;4983401;28;20055;-79
2023/03/01 13:19:20;;;;;;;14.32;9.48;;;;;;;;;;4983255;28;20084;-77
2023/03/01 13:21:48;;;;;;;15.38;10.77;;;;;;;;;;4968804;28;20042;-76
2023/03/01 13:24:29;;;;;;;15.38;10.60;;;;;;;;;;4984978;28;20026;-77
2023/03/01 13:27:18;;;;;;;13.60;10.82;;;;;;;;;;4982245;28;20039;-75
2023/03/01 13:29:52;;;;;;;17.77;11.35;;;;;;;;;;4953469;28;20551;-77
2023/03/01 13:32:22;;;;;;;14.05;10.23;;;;;;;;;;4977368;28;21033;-76
2023/03/01 13:34:50;;;;;;;14.13;9.50;;;;;;;;;;4983086;28;20026;-76
2023/03/01 13:37:36;;;;;;;15.05;10.60;;;;;;;;;;4986486;28;20068;-75
2023/03/01 13:40:05;;;;;;;15.65;11.38;;;;;;;;;;4969484;28;20030;-75
2023/03/01 13:42:34;;;;;;;13.05;10.07;;;;;;;;;;4985607;28;20100;-75
2023/03/01 13:45:01;;;;;;;14.38;9.68;;;;;;;;;;4984267;28;20042;-75
2023/03/01 13:47:27;;;;;;;12.43;9.35;;;;;;;;;;4986518;28;20096;-77
2023/03/01 13:49:58;;;;;;;14.25;10.10;;;;;;;;;;4977117;28;20070;-82
2023/03/01 13:52:33;;;;;;;14.68;9.85;;;;;;;;;;4984197;28;20045;-78
2023/03/01 13:55:01;;;;;;;15.45;9.85;;;;;;;;;;4982207;28;20071;-73
2023/03/01 13:57:30;;;;;;;14.68;9.98;;;;;;;;;;4981418;28;20226;-77
2023/03/01 13:59:56;;;;;;;12.20;9.40;;;;;;;;;;4989565;28;20029;-80
2023/03/01 14:02:23;;;;;;;10.90;9.25;;;;;;;;;;5014537;28;20126;-78
2023/03/01 14:05:01;;;;;;;13.43;9.13;;;;;;;;;;4993147;28;20034;-78
2023/03/01 14:07:29;;;;;;;13.15;9.75;;;;;;;;;;4974041;28;20030;-79
2023/03/01 14:09:57;;;;;;;14.50;9.55;;;;;;;;;;4991288;28;20085;-77
2023/03/01 14:12:38;;;;;;;12.45;9.93;;;;;;;;;;4992888;28;20468;-77
2023/03/01 14:15:17;;;;;;;11.60;8.88;;;;;;;;;;4986323;28;20537;-79
2023/03/01 14:17:49;;;;;;;13.00;9.00;;;;;;;;;;4985218;28;20393;-78
2023/03/01 14:20:17;;;;;;;15.57;9.30;;;;;;;;;;4991650;28;20030;-78
2023/03/01 14:22:44;;;;;;;12.77;8.55;;;;;;;;;;4992502;28;20042;-77
2023/03/01 14:25:31;;;;;;;10.23;8.30;;;;;;;;;;4986767;28;20519;-77
2023/03/01 14:27:59;;;;;;;12.48;8.85;;;;;;;;;;4992400;28;20034;-78
2023/03/01 14:30:32;;;;;;;13.73;9.55;;;;;;;;;;4992417;28;20074;-78
2023/03/01 14:32:59;;;;;;;10.93;8.50;;;;;;;;;;4975433;28;20089;-78